MSP weather

Minneapolis-St Paul International/Wold-Chamberlain Airport
Minneapolis, Minnesota, United States

Public forecast

Using degrees Fahrenheit for public forecast. Weather courtesy of forecast.io.

METAR (pilot weather report)

Retrieved 2018/10/17 02:53 UTC (39 minutes ago):

KMSP 170253Z 33013G19KT 10SM CLR 05/M02 A3013 RMK AO2 SLP208 T00501017 51025

TAF (pilot weather forecast)

Forecast is more than 12 hours old.

Retrieved 2018/10/16 00:24 UTC (1 day ago):

TAF KMSP 162322Z 1700/1806 30012KT P6SM SCT060 TEMPO 1700/1702 30013G23KT FM170600 29008KT P6SM SKC FM171600 29012G19KT P6SM FEW050 FM172100 30008KT P6SM SKC